Time;durP1;ratioP1;P1;durP2;ratioP2;P2;SDS_P1;SDS_P2;PMS_P1;PMS_P2;Temp;Humidity;BMP_temperature;BMP_pressure;BME280_temperature;BME280_humidity;BME280_pressure;Samples;Min_cycle;Max_cycle;Signal;HPM_P1;HPM_P2
2022/12/06 00:01:22;;;;;;;8.32;5.18;;;;;;;4.08;72.61;95420.25;5016609;28;20052;-72
2022/12/06 00:03:51;;;;;;;8.35;4.88;;;;;;;4.06;72.29;95419.47;5045608;28;20048;-72
2022/12/06 00:06:18;;;;;;;10.05;5.85;;;;;;;3.90;72.36;95403.97;5049558;28;20054;-72
2022/12/06 00:08:44;;;;;;;9.52;5.60;;;;;;;3.98;72.50;95419.88;5029394;28;20029;-72
2022/12/06 00:11:14;;;;;;;7.82;4.82;;;;;;;3.98;72.51;95417.28;5040733;28;20626;-72
2022/12/06 00:13:40;;;;;;;8.30;5.40;;;;;;;3.99;72.53;95411.25;5042742;28;20064;-73
2022/12/06 00:16:07;;;;;;;12.82;6.50;;;;;;;3.98;72.46;95412.16;5034348;28;20427;-72
2022/12/06 00:18:33;;;;;;;41.65;19.95;;;;;;;4.00;71.95;95406.94;5037357;28;20037;-73
2022/12/06 00:21:12;;;;;;;20.90;9.43;;;;;;;3.96;72.04;95403.69;5013869;28;20025;-72
2022/12/06 00:23:38;;;;;;;9.70;5.88;;;;;;;3.92;72.14;95399.56;5030067;28;20131;-72
2022/12/06 00:26:04;;;;;;;7.53;4.60;;;;;;;3.90;71.81;95401.41;5029898;28;20025;-72
2022/12/06 00:28:30;;;;;;;7.13;4.53;;;;;;;3.88;71.93;95402.38;5013597;28;20037;-72
2022/12/06 00:30:58;;;;;;;6.95;4.22;;;;;;;3.81;71.92;95401.81;5031058;28;20029;-72
2022/12/06 00:33:24;;;;;;;8.20;4.80;;;;;;;3.70;72.03;95406.63;5032191;28;20040;-72
2022/12/06 00:36:00;;;;;;;7.38;4.72;;;;;;;3.57;72.61;95393.53;5033100;28;20112;-73
2022/12/06 00:38:26;;;;;;;8.50;5.05;;;;;;;3.57;72.84;95407.19;5033182;28;20487;-73
2022/12/06 00:40:59;;;;;;;7.07;4.35;;;;;;;3.48;72.57;95399.91;5023487;28;20029;-72
2022/12/06 00:43:25;;;;;;;8.13;4.03;;;;;;;3.39;72.48;95399.50;5014324;28;20033;-72
2022/12/06 00:45:50;;;;;;;7.25;4.05;;;;;;;3.36;73.58;95392.75;5032341;28;20037;-72
2022/12/06 00:48:15;;;;;;;8.32;4.45;;;;;;;3.55;72.67;95403.03;5028341;28;20034;-72
2022/12/06 00:50:41;;;;;;;7.78;4.90;;;;;;;3.49;71.99;95391.31;5042229;28;20030;-72
2022/12/06 00:53:06;;;;;;;6.68;4.22;;;;;;;3.38;72.19;95392.69;5033856;28;20056;-72
2022/12/06 00:55:32;;;;;;;6.20;4.13;;;;;;;3.34;72.45;95399.69;5032793;28;20040;-72
2022/12/06 00:57:57;;;;;;;6.45;4.10;;;;;;;3.32;72.80;95391.25;5015674;28;20063;-72
2022/12/06 01:00:23;;;;;;;6.30;4.15;;;;;;;3.27;72.71;95395.75;5045437;28;20048;-72
2022/12/06 01:02:48;;;;;;;6.57;4.03;;;;;;;3.04;72.65;95358.28;5037296;28;20034;-72
2022/12/06 01:05:14;;;;;;;9.25;5.53;;;;;;;3.11;72.88;95381.00;5045284;28;20399;-72
2022/12/06 01:07:39;;;;;;;7.07;4.28;;;;;;;3.11;73.19;95393.84;5030063;28;20037;-72
2022/12/06 01:10:05;;;;;;;9.15;5.13;;;;;;;3.19;74.20;95384.97;5036884;28;20021;-72
2022/12/06 01:12:31;;;;;;;8.95;4.75;;;;;;;3.23;74.37;95389.06;5046990;28;20414;-72
2022/12/06 01:14:56;;;;;;;6.68;4.30;;;;;;;3.27;74.29;95390.63;5043898;28;20032;-72
2022/12/06 01:17:21;;;;;;;7.45;4.60;;;;;;;3.18;74.61;95370.50;5040138;28;20541;-72
2022/12/06 01:19:48;;;;;;;7.93;4.43;;;;;;;3.30;74.66;95377.63;5030370;28;20716;-72
2022/12/06 01:22:14;;;;;;;8.25;4.55;;;;;;;3.33;74.77;95380.06;5028557;28;20036;-72
2022/12/06 01:24:39;;;;;;;7.65;4.63;;;;;;;3.31;74.50;95353.59;5033251;28;20025;-72
2022/12/06 01:27:05;;;;;;;6.57;4.53;;;;;;;3.39;74.58;95372.06;5033108;28;20079;-72
2022/12/06 01:29:30;;;;;;;7.53;4.40;;;;;;;3.46;74.86;95375.19;5048966;28;20074;-72
2022/12/06 01:31:55;;;;;;;6.85;4.43;;;;;;;3.44;74.63;95375.25;5052858;28;20099;-72
2022/12/06 01:34:21;;;;;;;7.45;4.30;;;;;;;3.45;74.81;95368.38;5038130;28;20045;-73
2022/12/06 01:36:47;;;;;;;9.35;5.07;;;;;;;3.52;75.09;95372.34;5032867;28;20554;-73
2022/12/06 01:39:12;;;;;;;8.32;4.20;;;;;;;3.54;75.19;95368.81;5017382;28;20470;-72
2022/12/06 01:41:38;;;;;;;6.95;4.35;;;;;;;3.63;74.84;95369.28;5031470;28;20092;-72
2022/12/06 01:44:03;;;;;;;6.43;4.25;;;;;;;3.65;74.86;95370.03;5035979;28;20025;-72
2022/12/06 01:46:29;;;;;;;8.13;4.28;;;;;;;3.62;75.26;95371.00;5052924;28;20399;-72
2022/12/06 01:49:07;;;;;;;7.63;4.28;;;;;;;3.62;74.99;95355.56;5049101;28;20059;-72
2022/12/06 01:51:33;;;;;;;7.07;4.35;;;;;;;3.54;75.25;95329.44;5049025;28;20029;-72
2022/12/06 01:53:59;;;;;;;5.72;4.05;;;;;;;3.72;75.08;95356.00;5015751;28;20033;-72
2022/12/06 01:56:24;;;;;;;6.97;4.22;;;;;;;3.67;75.30;95343.34;5034114;28;20514;-72
2022/12/06 01:58:50;;;;;;;7.22;3.97;;;;;;;3.80;75.10;95353.91;5011702;28;20045;-72
2022/12/06 02:01:15;;;;;;;6.30;4.47;;;;;;;3.83;75.19;95360.63;5031846;28;20052;-72
2022/12/06 02:03:41;;;;;;;7.18;3.90;;;;;;;3.80;75.31;95353.91;5034866;28;20038;-72
2022/12/06 02:06:07;;;;;;;6.75;4.00;;;;;;;3.85;75.23;95358.81;5035062;28;20467;-72
2022/12/06 02:08:33;;;;;;;5.78;3.85;;;;;;;3.83;75.05;95342.63;5035526;28;20056;-72
2022/12/06 02:10:59;;;;;;;5.82;3.90;;;;;;;3.96;74.88;95344.53;5031218;28;20026;-72
2022/12/06 02:13:25;;;;;;;6.32;3.78;;;;;;;3.90;74.80;95344.00;5033943;28;20037;-72
2022/12/06 02:16:25;;;;;;;6.38;4.25;;;;;;;3.78;75.18;95347.97;5020311;28;20465;-72
2022/12/06 02:19:04;;;;;;;6.50;3.90;;;;;;;3.85;74.78;95344.22;5040557;28;20396;-72
2022/12/06 02:22:05;;;;;;;7.07;3.97;;;;;;;3.97;74.65;95347.94;5048138;28;20032;-73
2022/12/06 02:24:53;;;;;;;7.45;4.10;;;;;;;4.07;74.26;95340.59;5038611;28;20499;-72
2022/12/06 02:27:19;;;;;;;10.05;3.92;;;;;;;4.02;73.96;95344.25;5034375;28;20029;-72
2022/12/06 02:30:08;;;;;;;7.75;4.32;;;;;;;4.14;73.64;95341.97;5033165;28;20491;-72
2022/12/06 02:32:35;;;;;;;5.75;3.47;;;;;;;4.09;73.90;95331.09;5032894;28;20553;-72
2022/12/06 02:35:10;;;;;;;6.57;3.92;;;;;;;4.05;73.91;95327.84;5031624;28;20306;-72
2022/12/06 02:38:02;;;;;;;6.22;3.75;;;;;;;3.96;74.09;95323.16;5044827;28;20025;-72
2022/12/06 02:40:35;;;;;;;7.65;3.83;;;;;;;3.85;74.10;95300.53;5038737;28;20368;-72
2022/12/06 02:43:32;;;;;;;7.13;4.10;;;;;;;3.79;74.32;95318.84;5047718;28;20100;-72
2022/12/06 02:45:58;;;;;;;5.35;3.42;;;;;;;3.88;74.28;95310.66;5033328;28;20076;-72
2022/12/06 02:48:24;;;;;;;6.07;3.75;;;;;;;3.98;74.17;95316.19;5030270;28;20504;-72
2022/12/06 02:51:01;;;;;;;5.90;3.55;;;;;;;3.99;73.98;95316.13;4999607;28;20028;-72
2022/12/06 02:53:27;;;;;;;6.88;4.13;;;;;;;3.81;74.82;95314.44;5048019;28;20025;-72
2022/12/06 02:55:53;;;;;;;7.68;3.88;;;;;;;3.80;74.83;95307.63;5026381;28;20035;-72
2022/12/06 02:58:18;;;;;;;7.60;4.05;;;;;;;3.88;74.72;95305.53;5026661;28;20025;-72
2022/12/06 03:00:45;;;;;;;6.05;3.80;;;;;;;3.86;74.94;95315.03;5037870;28;20053;-72
2022/12/06 03:03:16;;;;;;;7.38;4.10;;;;;;;3.97;74.66;95317.91;5032523;28;20029;-72
2022/12/06 03:05:57;;;;;;;;;;;;;;;3.96;74.53;95311.13;5046858;28;20114;-72
2022/12/06 03:08:32;;;;;;;6.95;3.92;;;;;;;3.92;74.62;95317.31;5048863;28;19925;-72
2022/12/06 03:10:59;;;;;;;7.05;4.07;;;;;;;3.95;74.97;95313.75;4999146;28;20044;-72
2022/12/06 03:13:45;;;;;;;7.75;4.43;;;;;;;3.84;75.64;95309.13;5020417;28;20033;-72
2022/12/06 03:16:30;;;;;;;7.40;4.05;;;;;;;4.02;75.05;95310.00;5036385;28;20518;-72
2022/12/06 03:19:06;;;;;;;8.05;4.13;;;;;;;4.10;74.70;95319.91;5044784;28;20960;-72
2022/12/06 03:21:43;;;;;;;6.57;3.80;;;;;;;4.07;74.63;95314.88;5045831;28;20400;-72
2022/12/06 03:24:10;;;;;;;15.70;4.63;;;;;;;4.05;74.91;95303.88;5040373;28;20048;-72
2022/12/06 03:26:36;;;;;;;7.18;4.32;;;;;;;4.20;74.62;95311.63;5037858;28;20040;-72
2022/12/06 03:29:01;;;;;;;6.85;4.15;;;;;;;4.18;74.43;95308.31;5026306;28;20033;-72
2022/12/06 03:31:27;;;;;;;8.77;5.05;;;;;;;4.17;74.41;95306.66;5025555;28;20034;-73
2022/12/06 03:34:30;;;;;;;9.02;5.10;;;;;;;4.12;74.79;95300.06;5029632;28;20098;-72
2022/12/06 03:36:55;;;;;;;9.45;6.05;;;;;;;4.08;74.81;95303.72;5031792;28;20051;-72
2022/12/06 03:39:30;;;;;;;10.75;5.70;;;;;;;4.16;74.90;95305.00;5023544;28;20038;-72
2022/12/06 03:41:56;;;;;;;8.82;5.25;;;;;;;4.23;74.25;95300.38;5013359;28;20033;-72
2022/12/06 03:44:22;;;;;;;7.80;4.20;;;;;;;4.25;74.26;95301.13;5023676;28;20036;-72
2022/12/06 03:46:49;;;;;;;7.45;4.15;;;;;;;4.28;73.86;95298.41;5032072;28;20033;-72
2022/12/06 03:49:16;;;;;;;7.90;4.45;;;;;;;4.36;73.82;95298.03;5019094;28;20110;-72
2022/12/06 03:51:41;;;;;;;6.68;4.28;;;;;;;4.27;73.99;95289.03;5050273;28;20029;-72
2022/12/06 03:54:07;;;;;;;7.20;4.32;;;;;;;4.29;73.85;95288.94;5033599;28;20422;-72
2022/12/06 03:56:35;;;;;;;6.95;4.15;;;;;;;4.31;73.79;95287.94;5017069;28;20052;-72
2022/12/06 03:59:05;;;;;;;8.23;4.45;;;;;;;4.31;73.84;95287.94;5034172;28;20487;-72
2022/12/06 04:01:30;;;;;;;8.95;4.40;;;;;;;4.34;73.36;95284.41;5044385;28;20112;-72
2022/12/06 04:03:56;;;;;;;7.10;4.25;;;;;;;4.38;73.66;95293.63;5030393;28;20048;-72
2022/12/06 04:06:21;;;;;;;6.93;4.30;;;;;;;4.37;73.21;95281.66;5046993;28;20029;-73
2022/12/06 04:08:47;;;;;;;7.03;4.47;;;;;;;4.44;72.91;95288.16;5051582;28;20499;-72
2022/12/06 04:11:12;;;;;;;7.05;4.55;;;;;;;4.42;72.74;95284.84;5033394;28;20461;-72
2022/12/06 04:13:38;;;;;;;6.57;4.53;;;;;;;4.39;72.65;95279.84;5045761;28;20136;-72
2022/12/06 04:18:09;;;;;;;9.48;5.47;;;;;;;4.44;72.49;95293.31;5036440;28;20060;-72
2022/12/06 04:18:49;;;;;;;7.03;4.50;;;;;;;4.50;72.51;95282.69;5036256;28;20040;-70
2022/12/06 04:23:58;;;;;;;7.85;4.80;;;;;;;4.39;72.90;95280.69;5051086;28;20115;-71
2022/12/06 04:26:23;;;;;;;9.13;4.72;;;;;;;4.39;73.13;95283.25;5022495;28;20422;-72
2022/12/06 04:39:46;;;;;;;10.48;6.13;;;;;;;4.60;72.41;95294.19;5038888;28;20450;-72
2022/12/06 04:44:55;;;;;;;12.82;7.68;;;;;;;4.51;72.18;95263.78;5045753;28;20328;-71
2022/12/06 04:47:21;;;;;;;14.93;7.80;;;;;;;4.73;72.14;95309.00;5039975;28;20025;-71
2022/12/06 04:49:46;;;;;;;39.80;13.82;;;;;;;4.66;72.27;95295.63;5043188;28;20025;-71
2022/12/06 04:52:12;;;;;;;102.47;26.25;;;;;;;4.67;72.22;95292.94;5028325;28;20415;-72
2022/12/06 04:54:38;;;;;;;74.50;22.75;;;;;;;4.71;72.26;95296.22;5046474;28;20041;-71
2022/12/06 04:57:03;;;;;;;40.20;15.45;;;;;;;4.83;71.70;95299.88;5033728;28;20049;-71
2022/12/06 04:59:29;;;;;;;36.50;16.67;;;;;;;4.71;71.91;95280.78;5031294;28;20048;-71
2022/12/06 05:01:54;;;;;;;20.40;10.82;;;;;;;4.74;72.06;95298.63;5050033;28;20033;-71
2022/12/06 05:04:20;;;;;;;10.70;6.15;;;;;;;4.68;71.90;95284.34;5032413;28;20030;-71
2022/12/06 05:06:45;;;;;;;67.10;24.33;;;;;;;4.78;71.89;95294.13;5031805;28;20068;-72
2022/12/06 05:09:11;;;;;;;71.45;27.48;;;;;;;4.84;71.87;95294.63;5050915;28;20039;-71
2022/12/06 05:11:36;;;;;;;68.35;25.23;;;;;;;4.85;71.61;95301.47;5048151;28;20029;-71
2022/12/06 05:14:02;;;;;;;51.83;22.63;;;;;;;4.88;71.50;95303.88;5048769;28;20029;-71
2022/12/06 05:16:27;;;;;;;28.35;13.00;;;;;;;4.79;71.69;95299.22;5047556;28;20281;-72
2022/12/06 05:18:53;;;;;;;16.27;8.75;;;;;;;4.78;71.88;95307.84;5051225;28;20037;-71
2022/12/06 05:21:20;;;;;;;15.35;9.15;;;;;;;4.83;71.58;95295.56;5051403;28;20418;-71
2022/12/06 05:23:45;;;;;;;21.30;12.90;;;;;;;4.89;71.27;95304.72;5052547;28;20029;-71
2022/12/06 05:26:17;;;;;;;12.50;7.22;;;;;;;4.78;71.74;95304.44;5053318;28;20028;-72
2022/12/06 05:28:43;;;;;;;9.68;5.57;;;;;;;4.80;71.32;95302.63;5050948;28;20041;-71
2022/12/06 05:31:09;;;;;;;12.30;7.10;;;;;;;4.77;71.40;95300.22;5047015;28;20068;-71
2022/12/06 05:33:35;;;;;;;8.45;4.72;;;;;;;4.78;71.53;95310.41;5034852;28;20128;-71
2022/12/06 05:36:09;;;;;;;7.80;4.80;;;;;;;4.74;71.95;95306.34;5048878;28;20032;-71
2022/12/06 05:38:34;;;;;;;23.25;12.40;;;;;;;4.72;71.82;95304.75;5048347;28;20044;-71
2022/12/06 05:41:00;;;;;;;13.55;8.02;;;;;;;4.73;71.57;95296.94;5051363;28;20023;-72
2022/12/06 05:43:28;;;;;;;9.68;5.85;;;;;;;4.69;71.62;95303.19;5051888;28;20090;-71
2022/12/06 05:45:54;;;;;;;14.40;8.85;;;;;;;4.62;71.75;95289.78;5049896;28;20495;-71
2022/12/06 05:48:19;;;;;;;8.48;4.90;;;;;;;4.70;71.47;95291.97;5050804;28;20052;-71
2022/12/06 05:50:48;;;;;;;9.68;6.68;;;;;;;4.77;71.53;95289.91;5048176;28;20426;-71
2022/12/06 05:53:13;;;;;;;7.47;4.82;;;;;;;4.82;71.21;95287.91;5035392;28;20529;-71
2022/12/06 05:55:39;;;;;;;14.95;10.25;;;;;;;4.73;71.59;95291.81;5053527;28;20028;-71
2022/12/06 05:58:04;;;;;;;9.57;6.50;;;;;;;4.78;71.44;95283.84;5049773;28;20060;-72
2022/12/06 06:00:30;;;;;;;9.35;6.30;;;;;;;4.88;71.32;95283.28;5048275;28;20406;-71
2022/12/06 06:02:55;;;;;;;6.07;4.10;;;;;;;4.75;71.48;95292.56;5045722;28;20416;-72
2022/12/06 06:05:21;;;;;;;7.47;4.32;;;;;;;4.80;71.49;95284.59;5046178;28;20028;-71
2022/12/06 06:07:46;;;;;;;8.35;4.40;;;;;;;4.72;71.41;95282.44;5046048;28;20048;-71
2022/12/06 06:10:12;;;;;;;5.57;3.55;;;;;;;4.61;71.89;95280.41;5047162;28;20036;-71
2022/12/06 06:12:37;;;;;;;6.78;4.07;;;;;;;4.81;71.60;95297.38;5030620;28;20102;-71
2022/12/06 06:15:05;;;;;;;6.40;4.35;;;;;;;4.91;71.43;95297.75;5045726;28;20048;-71
2022/12/06 06:17:34;;;;;;;5.65;3.85;;;;;;;4.59;71.51;95265.97;5048427;28;20027;-71
2022/12/06 06:20:04;;;;;;;7.40;3.90;;;;;;;4.70;71.66;95285.06;5046167;28;20036;-71
2022/12/06 06:22:31;;;;;;;5.72;4.07;;;;;;;4.72;72.26;95299.63;5042611;28;20063;-71
2022/12/06 06:24:56;;;;;;;13.90;6.70;;;;;;;4.64;72.07;95294.84;5048464;28;20499;-72
2022/12/06 06:27:22;;;;;;;69.50;20.60;;;;;;;4.75;72.11;95295.13;5031949;28;20017;-72
2022/12/06 06:29:47;;;;;;;118.72;41.45;;;;;;;4.85;71.81;95287.78;5042517;28;20025;-71
2022/12/06 06:32:13;;;;;;;44.65;20.45;;;;;;;4.96;71.71;95282.03;5049784;28;20083;-71
2022/12/06 06:34:38;;;;;;;28.52;13.73;;;;;;;5.01;71.68;95287.78;5048350;28;20098;-71
2022/12/06 06:37:03;;;;;;;13.07;6.43;;;;;;;5.00;71.38;95273.25;5047233;28;20031;-72
2022/12/06 06:39:29;;;;;;;9.15;5.45;;;;;;;5.13;70.92;95287.97;5046246;28;20037;-71
2022/12/06 06:41:55;;;;;;;7.90;4.97;;;;;;;5.17;70.88;95285.22;5044269;28;20025;-71
2022/12/06 06:44:21;;;;;;;6.30;4.22;;;;;;;5.18;70.85;95290.25;5049389;28;20035;-71
2022/12/06 06:46:46;;;;;;;8.05;4.55;;;;;;;5.29;70.15;95287.97;5024404;28;20032;-73
2022/12/06 06:49:12;;;;;;;7.22;4.50;;;;;;;5.28;70.36;95286.28;5039676;28;20029;-73
2022/12/06 06:51:37;;;;;;;12.65;7.05;;;;;;;5.33;70.18;95294.59;5045219;28;20095;-73
2022/12/06 06:54:03;;;;;;;10.27;5.63;;;;;;;5.20;70.50;95277.31;5045176;28;20041;-73
2022/12/06 06:56:28;;;;;;;10.23;6.18;;;;;;;5.34;70.21;95283.38;5047772;28;20049;-73
2022/12/06 06:58:54;;;;;;;14.48;6.70;;;;;;;5.47;69.48;95286.13;5026070;28;20036;-72
2022/12/06 07:01:21;;;;;;;16.85;9.52;;;;;;;5.44;69.69;95275.16;5036956;28;20029;-73
2022/12/06 07:03:47;;;;;;;18.55;8.82;;;;;;;5.41;69.36;95272.75;5040350;28;20044;-73
2022/12/06 07:06:12;;;;;;;22.27;11.68;;;;;;;5.54;69.17;95276.28;5032201;28;20052;-72
2022/12/06 07:08:38;;;;;;;15.38;7.90;;;;;;;5.37;69.70;95265.16;5035939;28;20038;-72
2022/12/06 07:11:04;;;;;;;15.50;8.60;;;;;;;5.37;69.16;95246.31;5035080;28;20033;-73
2022/12/06 07:13:30;;;;;;;22.50;11.52;;;;;;;5.53;69.07;95260.00;5034284;28;21404;-73
2022/12/06 07:15:57;;;;;;;11.82;6.25;;;;;;;5.38;69.89;95260.88;5034261;28;20037;-73
2022/12/06 07:18:23;;;;;;;9.55;4.88;;;;;;;5.46;69.65;95260.41;5016321;28;20032;-73
2022/12/06 07:20:49;;;;;;;8.25;5.18;;;;;;;5.63;69.49;95265.47;5042684;28;20103;-73
2022/12/06 07:23:14;;;;;;;8.88;4.55;;;;;;;5.68;69.11;95271.19;5013579;28;20492;-73
2022/12/06 07:25:40;;;;;;;6.95;4.40;;;;;;;5.75;68.99;95259.63;5017446;28;20057;-73
2022/12/06 07:28:05;;;;;;;9.25;5.45;;;;;;;5.93;68.62;95277.53;5048634;28;20033;-73
2022/12/06 07:30:31;;;;;;;13.90;9.13;;;;;;;6.03;68.25;95268.38;5046682;28;20053;-73
2022/12/06 07:32:57;;;;;;;8.32;5.38;;;;;;;6.01;68.29;95285.69;5033915;28;20044;-73
2022/12/06 07:35:23;;;;;;;7.85;4.30;;;;;;;6.00;68.03;95279.72;5034291;28;20033;-76
2022/12/06 07:37:49;;;;;;;9.77;5.57;;;;;;;6.09;67.92;95282.69;5033157;28;20329;-73
2022/12/06 07:40:15;;;;;;;10.23;6.28;;;;;;;6.24;67.36;95272.31;5030803;28;20029;-73
2022/12/06 07:45:24;;;;;;;9.65;4.38;;;;;;;6.07;67.94;95274.19;5034596;28;20518;-72
2022/12/06 07:47:49;;;;;;;9.90;4.70;;;;;;;6.21;67.47;95275.06;5034928;28;20038;-73
2022/12/06 07:50:17;;;;;;;7.72;4.65;;;;;;;6.28;67.63;95266.97;5031993;28;20025;-73
2022/12/06 07:52:43;;;;;;;8.38;4.68;;;;;;;6.24;67.44;95269.72;5014222;28;20041;-74
2022/12/06 07:55:09;;;;;;;9.57;5.30;;;;;;;6.35;67.10;95273.41;5032483;28;20022;-73
2022/12/06 07:57:35;;;;;;;11.68;6.28;;;;;;;6.38;67.31;95262.91;5033425;28;20060;-74
2022/12/06 08:00:01;;;;;;;12.55;6.75;;;;;;;6.43;67.17;95255.72;5029387;28;20022;-73
2022/12/06 08:02:27;;;;;;;14.85;7.35;;;;;;;6.61;66.94;95269.31;5028418;28;20108;-74
2022/12/06 08:04:52;;;;;;;13.48;5.95;;;;;;;6.60;67.15;95268.47;5028401;28;20087;-73
2022/12/06 08:07:18;;;;;;;8.85;4.90;;;;;;;6.62;66.56;95270.97;5029551;28;20083;-74
2022/12/06 08:09:43;;;;;;;8.02;5.30;;;;;;;6.75;66.32;95276.22;5011824;28;20112;-74
2022/12/06 08:12:09;;;;;;;9.60;5.15;;;;;;;6.74;66.54;95259.88;5029571;28;20411;-74
2022/12/06 08:14:35;;;;;;;9.90;5.82;;;;;;;6.89;66.60;95276.22;5014041;28;20046;-74
2022/12/06 08:17:00;;;;;;;9.43;5.28;;;;;;;6.98;66.14;95275.63;5013918;28;20104;-74
2022/12/06 08:19:26;;;;;;;7.65;4.20;;;;;;;6.82;65.79;95268.00;5031882;28;20403;-74
2022/12/06 08:21:51;;;;;;;7.72;4.40;;;;;;;6.87;65.63;95263.38;5031313;28;20498;-74
2022/12/06 08:24:17;;;;;;;8.05;4.70;;;;;;;7.06;65.27;95264.84;5014085;28;20045;-74
2022/12/06 08:26:42;;;;;;;8.57;4.80;;;;;;;6.97;64.85;95255.91;5030043;28;20415;-74
2022/12/06 08:29:08;;;;;;;7.78;3.97;;;;;;;7.08;65.15;95269.00;5030775;28;20049;-74
2022/12/06 08:31:33;;;;;;;8.90;4.13;;;;;;;6.90;64.93;95264.94;5030062;28;20099;-74
2022/12/06 08:33:59;;;;;;;7.65;4.20;;;;;;;7.04;64.29;95256.34;5030197;28;20087;-74
2022/12/06 08:36:25;;;;;;;7.68;4.03;;;;;;;7.18;64.27;95258.91;5030078;28;20032;-74
2022/12/06 08:38:51;;;;;;;7.82;4.40;;;;;;;7.06;64.22;95237.25;5013821;28;20041;-75
2022/12/06 08:44:01;;;;;;;10.13;4.30;;;;;;;7.37;63.58;95246.50;5030799;28;20044;-73
2022/12/06 08:46:26;;;;;;;9.02;5.13;;;;;;;7.50;63.60;95253.47;5029864;28;20411;-73
2022/12/06 08:48:52;;;;;;;9.65;5.00;;;;;;;7.48;63.40;95253.56;5029973;28;20120;-73
2022/12/06 08:51:17;;;;;;;8.40;5.25;;;;;;;7.60;62.90;95233.84;5030929;28;20563;-74
2022/12/06 08:53:43;;;;;;;8.93;5.10;;;;;;;7.51;63.15;95235.28;5031078;28;20037;-74
2022/12/06 08:56:08;;;;;;;10.73;5.15;;;;;;;7.49;63.15;95225.94;5013054;28;20050;-74
2022/12/06 08:58:33;;;;;;;8.13;4.65;;;;;;;7.72;63.26;95238.25;5013107;28;20057;-74
2022/12/06 09:00:59;;;;;;;10.35;4.50;;;;;;;7.83;62.55;95240.13;5030782;28;20484;-74
2022/12/06 09:03:24;;;;;;;9.75;5.40;;;;;;;7.95;61.58;95241.91;5013276;28;20396;-74
2022/12/06 09:05:50;;;;;;;11.55;5.78;;;;;;;7.89;62.47;95234.56;5029639;28;20033;-74
2022/12/06 09:08:15;;;;;;;7.70;4.70;;;;;;;7.89;62.15;95224.22;5013080;28;20488;-74
2022/12/06 09:10:42;;;;;;;8.85;4.63;;;;;;;7.81;62.59;95234.22;5030728;28;20415;-74
2022/12/06 09:13:07;;;;;;;8.15;4.93;;;;;;;7.89;62.43;95233.72;5031006;28;20475;-74
2022/12/06 09:15:33;;;;;;;9.25;5.35;;;;;;;7.95;61.95;95228.97;5030761;28;20033;-74
2022/12/06 09:17:58;;;;;;;16.60;8.05;;;;;;;7.88;61.80;95225.13;5030750;28;20040;-74
2022/12/06 09:20:23;;;;;;;10.93;6.75;;;;;;;7.78;62.95;95222.31;5030790;28;20479;-74
2022/12/06 09:22:49;;;;;;;9.82;6.10;;;;;;;7.83;62.82;95212.50;5029467;28;20038;-74
2022/12/06 09:25:14;;;;;;;9.93;6.80;;;;;;;7.81;62.18;95185.09;5029449;28;20033;-74
2022/12/06 09:27:40;;;;;;;13.07;7.13;;;;;;;8.02;61.74;95200.94;5029277;28;20033;-74
2022/12/06 09:30:06;;;;;;;14.27;7.88;;;;;;;8.12;61.14;95204.56;5029454;28;20033;-74
2022/12/06 09:32:31;;;;;;;11.95;6.50;;;;;;;8.17;61.79;95206.84;5029335;28;20018;-74
2022/12/06 09:34:57;;;;;;;13.20;7.00;;;;;;;8.17;61.29;95199.09;5030556;28;20435;-74
2022/12/06 09:37:22;;;;;;;13.10;7.10;;;;;;;8.20;60.98;95180.78;5030469;28;20411;-74
2022/12/06 09:39:50;;;;;;;10.35;6.18;;;;;;;8.33;60.62;95172.97;5029665;28;20095;-74
2022/12/06 09:42:53;;;;;;;11.05;6.35;;;;;;;8.45;60.29;95165.25;5032296;28;20033;-74
2022/12/06 09:45:18;;;;;;;9.07;5.30;;;;;;;8.27;59.92;95156.97;5033331;28;20029;-74
2022/12/06 09:48:26;;;;;;;13.88;6.60;;;;;;;8.35;60.42;95158.19;5034068;28;20037;-74
2022/12/06 09:51:05;;;;;;;12.88;6.75;;;;;;;8.36;60.24;95134.78;5036211;28;20040;-74
2022/12/06 09:53:43;;;;;;;10.55;5.38;;;;;;;8.07;59.76;95145.34;5032862;28;20511;-74
2022/12/06 09:56:23;;;;;;;10.25;5.38;;;;;;;7.98;60.60;95139.97;5033959;28;20140;-74
2022/12/06 09:59:01;;;;;;;10.63;5.47;;;;;;;7.72;61.09;95147.72;5017321;28;20049;-74
2022/12/06 10:01:52;;;;;;;10.90;5.00;;;;;;;7.68;61.86;95142.84;5032572;28;20134;-74
2022/12/06 10:04:30;;;;;;;14.70;7.68;;;;;;;8.02;61.50;95142.28;5032787;28;20557;-74
2022/12/06 10:07:30;;;;;;;13.75;7.05;;;;;;;8.22;60.68;95127.16;5033753;28;20025;-74
2022/12/06 10:10:11;;;;;;;8.95;4.97;;;;;;;8.25;60.63;95134.69;5032563;28;20033;-74
2022/12/06 10:12:36;;;;;;;9.87;5.90;;;;;;;8.42;60.67;95133.56;5033752;28;20482;-74
2022/12/06 10:15:13;;;;;;;9.82;5.88;;;;;;;8.52;60.82;95133.75;5033568;28;20029;-74
2022/12/06 10:18:09;;;;;;;8.88;4.82;;;;;;;8.62;59.62;95109.69;5033534;28;20034;-74
2022/12/06 10:20:39;;;;;;;13.27;6.88;;;;;;;8.58;60.04;95104.81;5033826;28;20459;-74
2022/12/06 10:23:33;;;;;;;12.05;6.60;;;;;;;8.64;59.93;95102.66;5032403;28;20048;-74
2022/12/06 10:26:13;;;;;;;11.52;5.90;;;;;;;8.73;59.60;95098.56;5018235;28;20044;-74
2022/12/06 10:28:49;;;;;;;17.35;7.60;;;;;;;8.72;59.72;95096.94;5033844;28;20095;-74
2022/12/06 10:31:26;;;;;;;14.52;7.85;;;;;;;8.72;59.62;95089.16;5033446;28;20036;-74
2022/12/06 10:33:54;;;;;;;12.05;6.80;;;;;;;8.77;60.04;95081.88;5032241;28;20118;-74
2022/12/06 10:36:41;;;;;;;11.38;6.80;;;;;;;8.64;59.34;95079.34;5015614;28;20422;-74
2022/12/06 10:39:30;;;;;;;10.57;6.22;;;;;;;8.55;60.46;95081.75;5015679;28;20041;-74
2022/12/06 10:42:05;;;;;;;15.70;9.60;;;;;;;8.30;61.37;95078.25;5031880;28;20056;-74
2022/12/06 10:44:50;;;;;;;18.88;9.57;;;;;;;8.07;62.75;95078.06;5032235;28;20037;-74
2022/12/06 10:47:22;;;;;;;16.15;7.80;;;;;;;8.20;61.84;95085.84;5031699;28;20523;-73
2022/12/06 10:49:50;;;;;;;15.15;8.80;;;;;;;8.35;61.52;95083.09;5033003;28;20375;-73
2022/12/06 10:52:37;;;;;;;12.18;6.63;;;;;;;8.36;61.55;95090.78;5031347;28;20024;-74
2022/12/06 10:55:08;;;;;;;14.23;7.10;;;;;;;8.22;61.61;95090.91;5032800;28;20164;-73
2022/12/06 10:57:52;;;;;;;;;;;;;;;8.27;61.81;95096.56;5033428;28;20061;-73
2022/12/06 11:00:25;;;;;;;9.63;6.60;;;;;;;8.22;61.83;95085.75;5032955;28;19939;-73
2022/12/06 11:03:10;;;;;;;13.23;7.90;;;;;;;7.89;62.85;95083.69;5031567;28;20036;-74
2022/12/06 11:06:14;;;;;;;12.38;7.13;;;;;;;7.98;62.85;95067.53;5015305;28;20124;-73
2022/12/06 11:08:45;;;;;;;10.95;6.57;;;;;;;7.91;62.55;95030.94;5031518;28;20033;-74
2022/12/06 11:11:17;;;;;;;11.65;7.10;;;;;;;7.83;63.38;95059.09;5031449;28;20098;-74
2022/12/06 11:14:10;;;;;;;16.88;9.32;;;;;;;7.97;63.42;95060.72;5031529;28;20139;-73
2022/12/06 11:16:40;;;;;;;15.45;8.73;;;;;;;8.13;62.29;95052.72;5014903;28;20029;-73
2022/12/06 11:19:57;;;;;;;20.55;8.07;;;;;;;8.15;62.85;95048.28;5031458;28;20041;-74
2022/12/06 11:22:58;;;;;;;14.13;8.57;;;;;;;8.18;62.78;95048.06;5042258;28;20124;-74
2022/12/06 11:25:33;;;;;;;15.10;9.13;;;;;;;8.19;62.40;95047.97;5032463;28;20064;-74
2022/12/06 11:28:02;;;;;;;15.65;10.00;;;;;;;8.21;62.19;95034.91;5031034;28;20038;-73
2022/12/06 11:30:28;;;;;;;15.73;8.05;;;;;;;8.07;62.36;95026.31;5031015;28;20172;-74
2022/12/06 11:32:54;;;;;;;12.50;7.47;;;;;;;8.27;62.16;95031.88;5014367;28;20033;-74
2022/12/06 11:35:22;;;;;;;15.85;7.55;;;;;;;8.21;62.21;95033.13;5031100;28;20029;-73
2022/12/06 11:37:49;;;;;;;13.30;7.60;;;;;;;8.28;61.96;95018.00;5030798;28;20030;-73
2022/12/06 11:40:35;;;;;;;13.07;7.47;;;;;;;8.29;62.25;95019.66;5014348;28;20404;-73
2022/12/06 11:43:02;;;;;;;13.60;6.68;;;;;;;8.09;62.41;95028.81;5015461;28;20033;-74
2022/12/06 11:45:34;;;;;;;13.90;6.75;;;;;;;8.20;62.57;95026.31;5030828;28;20120;-73
2022/12/06 11:48:01;;;;;;;11.82;6.95;;;;;;;8.29;62.30;95035.19;5031893;28;20025;-73
2022/12/06 11:50:30;;;;;;;17.40;8.60;;;;;;;8.33;62.09;95025.44;5030665;28;20033;-74
2022/12/06 11:53:01;;;;;;;15.07;8.52;;;;;;;8.14;62.79;95031.91;5030600;28;20032;-73
2022/12/06 11:55:40;;;;;;;16.05;9.18;;;;;;;8.12;62.97;95020.03;5030537;28;20116;-74
2022/12/06 11:58:07;;;;;;;13.00;7.65;;;;;;;8.21;62.48;95015.00;5014319;28;20080;-73
2022/12/06 12:00:33;;;;;;;11.80;7.80;;;;;;;8.21;62.42;95029.72;5030429;28;20033;-73
2022/12/06 12:02:58;;;;;;;13.00;7.68;;;;;;;7.77;63.37;95029.28;5013410;28;20041;-74
2022/12/06 12:05:33;;;;;;;17.17;6.10;;;;;;;7.54;64.03;95023.06;5030235;28;20037;-74
2022/12/06 12:08:02;;;;;;;13.52;6.82;;;;;;;7.32;64.91;95028.84;5030317;28;20033;-73
2022/12/06 12:10:33;;;;;;;16.70;7.05;;;;;;;7.44;64.83;95022.06;5030347;28;20041;-73
2022/12/06 12:15:57;;;;;;;12.80;6.50;;;;;;;7.78;64.31;95006.84;5031402;28;19971;-73